Аэропорт: Чертовицкое. Воронеж

ICAO: UUOO

METAR:
2021-01-19 11:30:00
UUOO 191130Z 30003MPS 6000 -SN OVC012 M15/M17 Q1014 R30/490243 NOSIG RMK QFE747
METAR:
2021-01-19 11:00:00
TAF UUOO 191100Z 1912/1921 32003MPS 3100 -SN BR OVC011